createdAt,value
2018-04-07T00:07:26.215Z,46.9
2018-04-07T00:17:40.579Z,46.7
2018-04-07T00:27:55.027Z,46.6
2018-04-07T00:38:08.685Z,46.6
2018-04-07T00:48:28.143Z,46.8
2018-04-07T00:58:43.485Z,46.8
2018-04-07T01:08:58.067Z,46.6
2018-04-07T01:19:11.583Z,46.7
2018-04-07T01:29:23.312Z,46.7
2018-04-07T01:39:36.937Z,46.9
2018-04-07T01:49:51.960Z,46.8
2018-04-07T02:00:07.928Z,47.0
2018-04-07T02:10:21.606Z,47.3
2018-04-07T02:20:42.700Z,47.2
2018-04-07T02:31:12.677Z,47.2
2018-04-07T02:41:26.679Z,47.3
2018-04-07T02:51:38.865Z,47.6
2018-04-07T03:01:53.899Z,47.7
2018-04-07T03:12:19.871Z,47.4
2018-04-07T03:22:34.460Z,47.6
2018-04-07T03:32:46.397Z,47.4
2018-04-07T03:43:00.499Z,47.4
2018-04-07T03:53:15.041Z,47.3
2018-04-07T04:03:29.302Z,47.3
2018-04-07T04:13:43.259Z,47.2
2018-04-07T04:23:57.856Z,47.4
2018-04-07T04:34:43.113Z,47.6
2018-04-07T04:45:04.987Z,47.8
2018-04-07T05:05:36.358Z,47.9
2018-04-07T05:15:53.279Z,48.1
2018-04-07T05:26:09.719Z,48.1
2018-04-07T05:36:23.532Z,48.3
2018-04-07T05:46:37.946Z,48.6
2018-04-07T05:56:51.684Z,49.0
2018-04-07T06:07:12.610Z,49.5
2018-04-07T06:17:26.342Z,49.7
2018-04-07T06:28:12.097Z,49.7
2018-04-07T06:38:56.897Z,49.8
2018-04-07T06:49:41.380Z,50.1
2018-04-07T06:59:55.517Z,50.2
2018-04-07T07:10:09.188Z,50.3
2018-04-07T07:20:43.714Z,50.4
2018-04-07T07:42:03.033Z,50.8
2018-04-07T07:52:17.376Z,47.8
2018-04-07T08:13:19.293Z,43.3
2018-04-07T08:24:21.855Z,41.2
2018-04-07T08:34:35.573Z,40.0
2018-04-07T08:44:49.788Z,38.1
2018-04-07T08:55:04.190Z,37.4
2018-04-07T09:05:18.460Z,36.3
2018-04-07T09:15:33.169Z,36.1
2018-04-07T09:25:47.210Z,35.9
2018-04-07T09:36:01.192Z,35.0
2018-04-07T09:46:15.494Z,34.4
2018-04-07T09:56:29.871Z,34.7
2018-04-07T10:07:48.998Z,34.4
2018-04-07T10:18:03.531Z,34.2
2018-04-07T10:28:17.424Z,33.4
2018-04-07T10:38:34.099Z,32.5
2018-04-07T10:48:45.573Z,30.7
2018-04-07T10:58:58.398Z,31.3
2018-04-07T11:10:50.448Z,31.1
2018-04-07T11:21:55.224Z,29.5
2018-04-07T11:32:09.107Z,29.5
2018-04-07T11:42:23.329Z,27.9
2018-04-07T11:53:27.914Z,28.3
2018-04-07T12:04:08.148Z,28.7
2018-04-07T12:14:59.205Z,28.2
2018-04-07T12:31:54.804Z,28.6
2018-04-07T12:47:50.550Z,29.7
2018-04-07T12:58:39.147Z,32.0
2018-04-07T13:12:22.048Z,33.5
2018-04-07T13:23:09.045Z,34.4
2018-04-07T13:33:21.902Z,36.0
2018-04-07T13:44:36.035Z,37.4
2018-04-07T13:55:43.744Z,37.6
2018-04-07T14:05:57.492Z,37.2
2018-04-07T14:16:12.019Z,35.7
2018-04-07T14:26:25.742Z,35.2
2018-04-07T14:36:37.250Z,33.7
2018-04-07T14:57:05.872Z,34.9
2018-04-07T15:07:19.853Z,33.2
2018-04-07T15:17:34.230Z,31.1
2018-04-07T15:27:49.058Z,33.2
2018-04-07T15:38:46.302Z,33.0
2018-04-07T15:49:00.633Z,33.0
2018-04-07T15:59:17.146Z,34.1
2018-04-07T16:09:29.236Z,34.8
2018-04-07T16:20:14.005Z,35.4
2018-04-07T16:30:28.270Z,36.2
2018-04-07T16:40:44.220Z,37.1
2018-04-07T16:50:59.114Z,37.6
2018-04-07T17:01:13.864Z,38.6
2018-04-07T17:12:00.957Z,39.1
2018-04-07T17:22:12.821Z,39.9
2018-04-07T17:33:01.349Z,40.8
2018-04-07T17:46:08.784Z,41.7
2018-04-07T18:11:01.612Z,42.3
2018-04-07T18:21:47.533Z,42.9
2018-04-07T18:50:32.142Z,43.7
2018-04-07T19:00:47.859Z,44.1
2018-04-07T19:12:01.246Z,44.4
2018-04-07T19:24:34.910Z,44.7
2018-04-07T19:34:50.201Z,44.7
2018-04-07T20:09:28.428Z,45.3
2018-04-07T20:19:45.565Z,45.1
2018-04-07T20:30:32.873Z,45.2
2018-04-07T20:44:03.168Z,46.0
2018-04-07T20:54:16.802Z,45.8
2018-04-07T21:04:31.458Z,46.2
2018-04-07T21:14:45.379Z,46.3
2018-04-07T21:24:59.588Z,46.7
2018-04-07T21:35:13.994Z,46.5
2018-04-07T21:45:26.090Z,46.8
2018-04-07T21:56:11.500Z,47.0
2018-04-07T22:06:24.959Z,46.9
2018-04-07T22:16:39.408Z,46.7
2018-04-07T22:26:53.463Z,47.4
2018-04-07T22:37:40.020Z,47.0
2018-04-07T22:47:52.674Z,47.3
2018-04-07T22:58:06.782Z,47.5
2018-04-07T23:08:52.423Z,47.3
2018-04-07T23:19:05.680Z,47.2
2018-04-07T23:29:51.457Z,47.1
2018-04-07T23:40:37.101Z,47.1
2018-04-07T23:51:22.027Z,47.0
